Flight Track Log - Related Links

Times and Time Zones

All times are in EDT time to prevent confusion due to time zone crossing. See the ASQ4179 flight status page for this flight to view local times or setup timezone preferences in your user account.

Time Position Orientation Groundspeed Altitude Reporting Facility
EDT Latitude Longitude Course Direction KTS km/h feet Rate Location/Type
Sat 06:57:16 40.6667 -74.1833 47° Northeast 178 330 1,300  Level New York TRACON
Sat 06:58:16 40.6167 -74.2167 207° Southwest 216 401 3,100 1,950 Climbing New York TRACON
Sat 06:59:56 40.6900 -74.2083 North 194 359 6,500 2,025 Climbing Boston Center
Sat 07:00:00 40.8620 -73.9046 37° Northeast  Level FlightAware Approximate
Sat 07:00:56 40.7083 -74.1075 76° East 192 356 8,500  Level Boston Center
Sat 07:01:00 40.9026 -73.8397 47° Northeast  Level FlightAware Approximate
Sat 07:01:56 40.7536 -74.0044 60° Northeast 250 463 10,400  Level Boston Center
Sat 07:02:00 40.9489 -73.7749 47° Northeast  Level FlightAware Approximate
Sat 07:03:08 40.8322 -73.8994 45° Northeast 298 552 11,700  Level Boston Center
Sat 07:04:08 40.9042 -73.8022 46° Northeast 336 623 12,700 1,050 Climbing Boston Center
Sat 07:05:08 40.9761 -73.6992 47° Northeast 368 681 13,800 1,150 Climbing Boston Center
Sat 07:06:08 41.0233 -73.5764 63° Northeast 397 735 15,000 1,150 Climbing Boston Center
Sat 07:07:08 41.0728 -73.4286 66° East 402 745 16,100 1,200 Climbing Boston Center
Sat 07:08:08 41.1217 -73.2889 65° Northeast 407 753 17,400 1,100 Climbing Boston Center
Sat 07:09:08 41.1644 -73.1653 65° Northeast 407 753 18,300 800 Climbing Boston Center
Sat 07:10:08 41.2108 -73.0250 66° East 407 753 19,000 350 Climbing Boston Center
Sat 07:11:08 41.2617 -72.8764 65° Northeast 419 776 19,000  Level Boston Center
Sat 07:12:08 41.3100 -72.7192 68° East 435 806 19,000  Level Boston Center
Sat 07:13:08 41.3667 -72.5508 66° East 450 834 19,000  Level Boston Center
Sat 07:14:08 41.4167 -72.3958 67° East 450 834 19,000  Level Boston Center
Sat 07:15:08 41.4667 -72.2433 66° East 450 834 19,000  Level Boston Center
Sat 07:16:08 41.5119 -72.1047 66° East 456 845 19,000  Level Boston Center
Sat 07:17:08 41.5636 -71.9378 67° East 450 834 19,000  Level Boston Center
Sat 07:18:08 41.6086 -71.7986 67° East 445 824 19,000 -600 Level Boston Center
Sat 07:19:08 41.6578 -71.6317 68° East 445 824 17,800 -1,800 Descending Boston Center
Sat 07:20:08 41.7106 -71.4753 66° East 455 843 15,400 -2,250 Descending Boston Center
Sat 07:21:08 41.7614 -71.3408 63° Northeast 420 777 13,300 -2,132 Descending Boston Center
Sat 07:22:09 41.8186 -71.2089 60° Northeast 406 752 11,100 -1,100 Descending Boston Center
Sat 07:23:08 41.8611 -71.1106 60° Northeast 391 724 11,100 -555 Level Boston Center
Sat 07:24:08 41.9139 -70.9839 61° Northeast 333 616 10,000 -1,050 Descending Boston Center
Sat 07:25:08 41.9583 -70.8850 59° Northeast 311 576 9,000 -850 Descending Boston Center
Sat 07:26:08 42.0028 -70.7889 58° Northeast 306 566 8,300 -500 Descending Boston Center
Sat 07:27:08 42.0536 -70.7039 51° Northeast 295 546 8,000 -250 Descending Boston Center
Sat 07:28:08 42.1128 -70.6267 44° Northeast 290 538 7,800 -450 Descending Boston Center
Sat 07:29:08 42.1772 -70.6133 North 263 488 7,100 -750 Descending Boston Center
Sat 07:30:08 42.2564 -70.6167 358° North 260 481 6,300 -950 Descending Boston Center
Sat 07:31:08 42.3256 -70.6400 346° North 258 478 5,200 -1,200 Descending Boston Center
Sat 07:32:08 42.3847 -70.6861 330° Northwest 245 454 3,900 -1,150 Descending Boston Center
Sat 07:33:08 42.4047 -70.7672 288° West 230 426 2,900 -870 Descending Boston Center
Sat 07:35:28 42.3667 -70.9167 251° West 129 238 1,000 -750 Descending KA90
Sat 07:36:28 42.3667 -70.9667 270° West 117 217 400 -600 Descending KA90
Sat 07:38:00 42.3500 -71.0000 North  Level FlightAware Approximate
Sat 07:45:00 42.3630 -71.0064 North  Level Estimated
Sat 07:46:00 42.3630 -71.0064 North  Level Estimated
Sat 07:47:00 42.3630 -71.0064 North  Level Estimated
Sat 07:48:00 42.3630 -71.0064 North  Level Estimated

Login

Don't have an account? Register now (free) for customized features, flight alerts, and more!